CheckWX is a tool to help pilots better visualize weather data.  It is not intended as a substitute for an official pre-flight weather briefing.

14:53:41 UTC

KMLI TAF
Quad City International Airport
Moline, Illinois, USA
KMLI 191134Z 1912/2012 VRB03KT 6SM BR BKN040 OVC090 TEMPO 1912/1913 3SM -RASN BR OVC008 FM191300 33003KT 3SM -DZ BR OVC006 FM191500 31006KT P6SM OVC012 FM192000 33006KT P6SM OVC025 FM200400 VRB03KT 4SM BR SCT008 OVC020

Nov-19@
12:00 UTC

Nov-19 @ 12:00 UTC

Nov-19@
13:00 UTC

Nov-19 @ 13:00 UTC

KMLI 191134Z 1912/2012 VRB03KT 6SM BR BKN040 OVC090

Expired

Wind
  • Variable at 3 KTS
Conditions
Mist
Cloud Levels
  • Broken at 4,000' AGL
  • Overcast at 9,000' AGL

Nov-19@
12:00 UTC

Nov-19 @ 12:00 UTC

Nov-19@
13:00 UTC

Nov-19 @ 13:00 UTC

TEMPO 1912/1913 3SM -RASN BR OVC008

Expired

Conditions
Light Rain, Light Snow, Mist
Cloud Levels
  • Overcast at 800' AGL

Nov-19@
13:00 UTC

Nov-19 @ 13:00 UTC

Nov-19@
15:00 UTC

Nov-19 @ 15:00 UTC

FM191300 33003KT 3SM -DZ BR OVC006

From

From Standard forecast or significant change

Wind
  • 330° at 3 KTS
Conditions
Light Drizzle, Mist
Cloud Levels
  • Overcast at 600' AGL

Nov-19@
15:00 UTC

Nov-19 @ 15:00 UTC

Nov-19@
20:00 UTC

Nov-19 @ 20:00 UTC

FM191500 31006KT P6SM OVC012

From

From Standard forecast or significant change

Wind
  • 310° at 6 KTS
Cloud Levels
  • Overcast at 1,200' AGL

Nov-19@
20:00 UTC

Nov-19 @ 20:00 UTC

Nov-20@
04:00 UTC

Nov-20 @ 04:00 UTC

FM192000 33006KT P6SM OVC025

From

From Standard forecast or significant change

Wind
  • 330° at 6 KTS
Cloud Levels
  • Overcast at 2,500' AGL

Nov-20@
04:00 UTC

Nov-20 @ 04:00 UTC

Nov-20@
12:00 UTC

Nov-20 @ 12:00 UTC

FM200400 VRB03KT 4SM BR SCT008 OVC020

From

From Standard forecast or significant change

Wind
  • Variable at 3 KTS
Conditions
Mist
Cloud Levels
  • Scattered at 800' AGL
  • Overcast at 2,000' AGL